createdAt,value
2022-07-28T00:01:28.052Z,100006.69
2022-07-28T00:03:58.185Z,100017.13
2022-07-28T00:06:26.650Z,100015.19
2022-07-28T00:08:55.455Z,100001.66
2022-07-28T00:11:24.024Z,100010.00
2022-07-28T00:13:52.533Z,99993.88
2022-07-28T00:16:21.509Z,100007.53
2022-07-28T00:18:50.267Z,100013.06
2022-07-28T00:21:20.308Z,100007.22
2022-07-28T00:23:48.795Z,99989.03
2022-07-28T00:26:17.255Z,99963.69
2022-07-28T00:28:45.982Z,99996.16
2022-07-28T00:31:14.681Z,99982.22
2022-07-28T00:33:43.697Z,99989.69
2022-07-28T00:36:13.332Z,99979.81
2022-07-28T00:38:44.289Z,99992.41
2022-07-28T00:41:14.658Z,99980.00
2022-07-28T00:43:46.600Z,99982.34
2022-07-28T00:46:19.218Z,99981.03
2022-07-28T00:48:51.458Z,99987.50
2022-07-28T00:51:22.722Z,99990.13
2022-07-28T00:53:53.553Z,99983.69
2022-07-28T00:56:22.730Z,99971.56
2022-07-28T00:58:51.587Z,99971.59
2022-07-28T01:01:21.500Z,99973.25
2022-07-28T01:03:53.823Z,99971.59
2022-07-28T01:06:42.096Z,99967.13
2022-07-28T01:09:24.828Z,99969.56
2022-07-28T01:12:00.347Z,99957.66
2022-07-28T01:14:36.393Z,99964.00
2022-07-28T01:17:11.198Z,99955.66
2022-07-28T01:19:44.857Z,99958.00
2022-07-28T01:22:18.388Z,99962.97
2022-07-28T01:25:02.688Z,99958.63
2022-07-28T01:27:44.943Z,99951.88
2022-07-28T01:30:34.750Z,99911.72
2022-07-28T01:35:41.798Z,99926.94
2022-07-28T01:38:12.185Z,99918.56
2022-07-28T01:40:44.445Z,99927.97
2022-07-28T01:43:18.044Z,99930.75
2022-07-28T01:45:48.364Z,99941.13
2022-07-28T01:48:19.371Z,99943.28
2022-07-28T01:50:50.205Z,99940.97
2022-07-28T01:53:19.677Z,99937.72
2022-07-28T01:55:51.191Z,99917.91
2022-07-28T01:58:23.524Z,99935.13
2022-07-28T02:00:55.082Z,99939.63
2022-07-28T02:03:24.930Z,99934.28
2022-07-28T02:05:56.809Z,99937.78
2022-07-28T02:08:26.968Z,99943.72
2022-07-28T02:11:14.623Z,99939.09
2022-07-28T02:13:44.093Z,99937.41
2022-07-28T02:16:17.021Z,99940.38
2022-07-28T02:18:47.261Z,99944.63
2022-07-28T02:21:17.378Z,99937.91
2022-07-28T02:23:49.453Z,99944.69
2022-07-28T02:26:23.077Z,99932.88
2022-07-28T02:28:55.530Z,99929.19
2022-07-28T02:31:30.056Z,99928.06
2022-07-28T02:34:02.451Z,99942.25
2022-07-28T02:36:36.010Z,99929.84
2022-07-28T02:39:08.830Z,99921.59
2022-07-28T02:41:40.839Z,99924.97
2022-07-28T02:44:15.743Z,99941.22
2022-07-28T02:46:47.887Z,99935.78
2022-07-28T02:49:22.554Z,99932.16
2022-07-28T02:51:53.582Z,99937.53
2022-07-28T02:54:24.233Z,99945.03
2022-07-28T02:56:56.086Z,99925.84
2022-07-28T02:59:25.253Z,99931.81
2022-07-28T03:01:56.441Z,99928.56
2022-07-28T03:04:40.488Z,99924.25
2022-07-28T03:07:11.050Z,99920.78
2022-07-28T03:09:41.835Z,99917.69
2022-07-28T03:12:10.938Z,99918.50
2022-07-28T03:14:40.035Z,99917.03
2022-07-28T03:17:10.238Z,99906.25
2022-07-28T03:19:39.252Z,99923.41
2022-07-28T03:22:10.185Z,99905.44
2022-07-28T03:24:40.617Z,99925.28
2022-07-28T03:27:16.607Z,99926.59
2022-07-28T03:29:50.655Z,99923.06
2022-07-28T03:32:22.915Z,99922.53
2022-07-28T03:34:52.603Z,99928.22
2022-07-28T03:37:33.450Z,99903.72
2022-07-28T03:40:02.893Z,99909.78
2022-07-28T03:42:34.513Z,99905.09
2022-07-28T03:45:03.740Z,99917.19
2022-07-28T03:47:33.870Z,99915.59
2022-07-28T03:50:02.635Z,99898.03
2022-07-28T03:52:31.202Z,99905.38
2022-07-28T03:54:59.665Z,99915.81
2022-07-28T03:57:28.174Z,99917.09
2022-07-28T03:59:56.716Z,99920.13
2022-07-28T04:05:22.305Z,99907.53
2022-07-28T04:07:50.741Z,99920.13
2022-07-28T04:10:19.547Z,99923.56
2022-07-28T04:12:49.852Z,99900.13
2022-07-28T04:15:19.738Z,99919.28
2022-07-28T04:17:49.730Z,99915.28
2022-07-28T04:20:19.130Z,99914.38
2022-07-28T04:22:50.012Z,99898.28
2022-07-28T04:25:22.127Z,99923.22
2022-07-28T04:27:50.868Z,99918.22
2022-07-28T04:30:21.541Z,99923.03
2022-07-28T04:32:51.933Z,99925.38
2022-07-28T04:35:20.800Z,99920.56
2022-07-28T04:37:51.054Z,99926.53
2022-07-28T04:40:19.622Z,99924.13
2022-07-28T04:42:48.064Z,99930.81
2022-07-28T04:45:16.591Z,99921.09
2022-07-28T04:47:45.140Z,99929.75
2022-07-28T04:50:16.143Z,99931.00
2022-07-28T04:52:49.412Z,99928.25
2022-07-28T04:55:19.886Z,99891.63
2022-07-28T04:57:48.733Z,99921.53
2022-07-28T05:00:17.831Z,99927.38
2022-07-28T05:02:49.602Z,99918.31
2022-07-28T05:05:18.225Z,99935.31
2022-07-28T05:07:46.781Z,99936.91
2022-07-28T05:10:15.584Z,99942.84
2022-07-28T05:12:49.515Z,99942.56
2022-07-28T05:15:17.999Z,99939.75
2022-07-28T05:17:46.957Z,99938.97
2022-07-28T05:20:15.666Z,99944.72
2022-07-28T05:22:45.457Z,99939.16
2022-07-28T05:25:18.578Z,99917.38
2022-07-28T05:27:49.433Z,99945.53
2022-07-28T05:30:19.363Z,99938.91
2022-07-28T05:32:49.227Z,99918.91
2022-07-28T05:35:18.197Z,99931.28
2022-07-28T05:37:46.665Z,99938.22
2022-07-28T05:40:16.476Z,99913.53
2022-07-28T05:42:47.726Z,99930.91
2022-07-28T05:45:18.043Z,99920.72
2022-07-28T05:47:49.310Z,99938.31
2022-07-28T05:50:18.847Z,99926.06
2022-07-28T05:52:49.439Z,99935.19
2022-07-28T05:55:18.569Z,99931.88
2022-07-28T05:57:48.307Z,99925.69
2022-07-28T06:00:20.387Z,99937.22
2022-07-28T06:02:50.183Z,99936.38
2022-07-28T06:05:21.062Z,99921.28
2022-07-28T06:07:50.670Z,99942.66
2022-07-28T06:10:21.398Z,99939.13
2022-07-28T06:12:51.341Z,99925.31
2022-07-28T06:15:22.747Z,99909.25
2022-07-28T06:17:52.764Z,99938.09
2022-07-28T06:20:22.188Z,99941.84
2022-07-28T06:22:52.348Z,99947.00
2022-07-28T06:25:22.733Z,99943.47
2022-07-28T06:27:53.623Z,99946.69
2022-07-28T06:30:24.396Z,99946.81
2022-07-28T06:32:53.507Z,99953.16
2022-07-28T06:35:22.833Z,99956.78
2022-07-28T06:37:52.486Z,99953.88
2022-07-28T06:40:23.097Z,99955.97
2022-07-28T06:42:51.974Z,99949.59
2022-07-28T06:45:23.670Z,99953.41
2022-07-28T06:47:52.413Z,99943.50
2022-07-28T06:50:24.739Z,99950.00
2022-07-28T06:52:56.208Z,99936.91
2022-07-28T06:55:25.178Z,99935.19
2022-07-28T06:57:54.624Z,99936.47
2022-07-28T07:00:24.694Z,99944.03
2022-07-28T07:02:53.613Z,99946.81
2022-07-28T07:05:22.178Z,99948.03
2022-07-28T07:07:50.693Z,99962.84
2022-07-28T07:10:19.250Z,99961.97
2022-07-28T07:12:47.785Z,99960.56
2022-07-28T07:15:16.284Z,99950.47
2022-07-28T07:17:46.200Z,99963.03
2022-07-28T07:20:17.174Z,99969.31
2022-07-28T07:22:48.939Z,99956.03
2022-07-28T07:25:19.631Z,99969.78
2022-07-28T07:27:48.264Z,99979.41
2022-07-28T07:30:17.688Z,99975.91
2022-07-28T07:32:47.571Z,99970.28
2022-07-28T07:35:16.032Z,99963.53
2022-07-28T07:37:44.800Z,99955.13
2022-07-28T07:40:13.428Z,99950.28
2022-07-28T07:42:42.308Z,99956.78
2022-07-28T07:45:11.345Z,99946.78
2022-07-28T07:47:39.889Z,99966.66
2022-07-28T07:50:10.579Z,99957.72
2022-07-28T07:52:39.112Z,99965.22
2022-07-28T07:55:08.738Z,99944.16
2022-07-28T07:57:37.815Z,99947.19
2022-07-28T08:00:07.164Z,99945.72
2022-07-28T08:02:35.733Z,99940.66
2022-07-28T08:05:04.265Z,99936.78
2022-07-28T08:07:34.226Z,99955.91
2022-07-28T08:10:03.315Z,99943.00
2022-07-28T08:12:31.874Z,99945.72
2022-07-28T08:15:00.484Z,99954.78
2022-07-28T08:17:29.015Z,99958.38
2022-07-28T08:19:58.296Z,99939.41
2022-07-28T08:22:27.156Z,99941.06
2022-07-28T08:24:57.391Z,99913.25
2022-07-28T08:27:26.074Z,99949.28
2022-07-28T08:29:55.047Z,99937.56
2022-07-28T08:32:23.623Z,99942.13
2022-07-28T08:35:00.117Z,99933.88
2022-07-28T08:37:40.199Z,99934.88
2022-07-28T08:40:14.921Z,99942.78
2022-07-28T08:42:51.955Z,99931.03
2022-07-28T08:45:22.253Z,99927.44
2022-07-28T08:48:07.728Z,99913.66
2022-07-28T08:50:37.017Z,99924.28
2022-07-28T08:53:07.929Z,99918.75
2022-07-28T08:55:38.966Z,99916.59
2022-07-28T08:58:08.707Z,99919.44
2022-07-28T09:00:37.328Z,99914.50
2022-07-28T09:03:07.152Z,99916.75
2022-07-28T09:05:37.269Z,99891.59
2022-07-28T09:08:06.864Z,99906.19
2022-07-28T09:10:35.604Z,99915.38
2022-07-28T09:13:05.517Z,99904.88
2022-07-28T09:15:34.805Z,99911.19
2022-07-28T09:18:04.036Z,99890.78
2022-07-28T09:20:32.612Z,99902.44
2022-07-28T09:23:02.879Z,99896.91
2022-07-28T09:25:32.222Z,99895.31
2022-07-28T09:28:09.531Z,99885.44
2022-07-28T09:30:53.232Z,99902.84
2022-07-28T09:33:42.644Z,99890.75
2022-07-28T09:36:19.266Z,99903.13
2022-07-28T09:38:48.819Z,99906.44
2022-07-28T09:41:21.990Z,99890.47
2022-07-28T09:43:56.003Z,99902.66
2022-07-28T09:46:29.166Z,99910.16
2022-07-28T09:49:00.841Z,99911.00
2022-07-28T09:51:31.333Z,99895.84
2022-07-28T09:54:11.859Z,99903.84
2022-07-28T09:56:42.141Z,99904.78
2022-07-28T09:59:14.980Z,99912.31
2022-07-28T10:01:55.286Z,99903.47
2022-07-28T10:04:32.952Z,99901.81
2022-07-28T10:07:10.075Z,99888.06
2022-07-28T10:09:40.103Z,99890.47
2022-07-28T10:12:20.554Z,99898.41
2022-07-28T10:14:53.041Z,99908.50
2022-07-28T10:17:39.801Z,99897.59
2022-07-28T10:20:09.845Z,99895.09
2022-07-28T10:22:43.418Z,99893.47
2022-07-28T10:25:13.485Z,99895.75
2022-07-28T10:27:43.251Z,99895.75
2022-07-28T10:30:15.298Z,99886.69
2022-07-28T10:32:46.120Z,99874.22
2022-07-28T10:35:15.802Z,99885.59
2022-07-28T10:37:53.094Z,99883.53
2022-07-28T10:40:26.369Z,99886.59
2022-07-28T10:42:57.060Z,99878.81
2022-07-28T10:45:47.901Z,99885.72
2022-07-28T10:48:17.842Z,99882.25
2022-07-28T10:50:46.557Z,99878.31
2022-07-28T10:53:31.003Z,99883.91
2022-07-28T10:56:03.889Z,99875.03
2022-07-28T10:58:46.048Z,99882.41
2022-07-28T11:01:48.274Z,99882.28
2022-07-28T11:04:52.452Z,99873.66
2022-07-28T11:07:22.458Z,99876.19
2022-07-28T11:09:52.325Z,99861.41
2022-07-28T11:12:48.370Z,99858.06
2022-07-28T11:15:34.700Z,99858.72
2022-07-28T11:18:09.234Z,99861.09
2022-07-28T11:21:07.817Z,99852.63
2022-07-28T11:23:48.626Z,99863.19
2022-07-28T11:26:37.552Z,99852.69
2022-07-28T11:29:16.207Z,99845.91
2022-07-28T11:32:04.875Z,99851.34
2022-07-28T11:35:07.015Z,99858.97
2022-07-28T11:38:11.277Z,99848.75
2022-07-28T11:40:44.782Z,99846.84
2022-07-28T11:43:37.690Z,99834.81
2022-07-28T11:46:37.708Z,99847.78
2022-07-28T11:49:25.245Z,99847.94
2022-07-28T11:52:27.028Z,99859.03
2022-07-28T11:54:59.270Z,99854.81
2022-07-28T11:57:29.301Z,99831.94
2022-07-28T12:00:03.651Z,99843.19
2022-07-28T12:02:36.392Z,99832.59
2022-07-28T12:05:11.517Z,99848.53
2022-07-28T12:07:48.636Z,99844.94
2022-07-28T12:10:53.816Z,99843.16
2022-07-28T12:13:28.932Z,99844.13
2022-07-28T12:15:58.157Z,99848.63
2022-07-28T12:18:26.672Z,99844.81
2022-07-28T12:20:55.934Z,99828.22
2022-07-28T12:23:39.387Z,99835.78
2022-07-28T12:26:31.780Z,99843.81
2022-07-28T12:29:01.403Z,99838.72
2022-07-28T12:31:33.302Z,99832.34
2022-07-28T12:34:02.329Z,99835.50
2022-07-28T12:36:31.216Z,99837.41
2022-07-28T12:39:01.621Z,99837.53
2022-07-28T12:41:35.824Z,99820.16
2022-07-28T12:44:06.946Z,99813.63
2022-07-28T12:46:35.472Z,99834.59
2022-07-28T12:49:04.334Z,99828.84
2022-07-28T12:51:34.560Z,99799.47
2022-07-28T12:54:03.547Z,99821.84
2022-07-28T12:56:45.858Z,99827.94
2022-07-28T12:59:14.870Z,99818.97
2022-07-28T13:01:49.002Z,99814.66
2022-07-28T13:04:18.351Z,99810.69
2022-07-28T13:06:56.987Z,99818.72
2022-07-28T13:09:32.916Z,99818.09
2022-07-28T13:12:14.816Z,99822.22
2022-07-28T13:14:44.492Z,99813.53
2022-07-28T13:17:13.321Z,99817.19
2022-07-28T13:19:42.026Z,99819.75
2022-07-28T13:22:10.529Z,99817.94
2022-07-28T13:24:39.280Z,99822.06
2022-07-28T13:27:09.367Z,99820.50
2022-07-28T13:29:37.905Z,99822.13
2022-07-28T13:32:07.043Z,99823.69
2022-07-28T13:34:35.725Z,99827.13
2022-07-28T13:37:04.811Z,99828.75
2022-07-28T13:39:33.272Z,99822.44
2022-07-28T13:42:05.733Z,99827.44
2022-07-28T13:44:37.636Z,99818.94
2022-07-28T13:47:06.931Z,99834.50
2022-07-28T13:49:37.511Z,99812.94
2022-07-28T13:52:13.187Z,99837.34
2022-07-28T13:54:41.912Z,99804.09
2022-07-28T13:57:11.042Z,99835.69
2022-07-28T13:59:43.961Z,99832.63
2022-07-28T14:02:15.420Z,99835.75
2022-07-28T14:04:45.716Z,99828.72
2022-07-28T14:07:14.755Z,99832.22
2022-07-28T14:09:51.434Z,99836.19
2022-07-28T14:12:20.491Z,99832.56
2022-07-28T14:14:50.422Z,99839.88
2022-07-28T14:20:13.058Z,99835.19
2022-07-28T14:22:41.984Z,99836.94
2022-07-28T14:25:11.798Z,99832.47
2022-07-28T14:27:48.101Z,99834.72
2022-07-28T14:30:18.238Z,99845.28
2022-07-28T14:32:46.749Z,99838.38
2022-07-28T14:35:15.588Z,99828.97
2022-07-28T14:40:33.338Z,99831.56
2022-07-28T14:43:08.997Z,99838.81
2022-07-28T14:46:05.470Z,99832.03
2022-07-28T14:48:27.892Z,99841.59
2022-07-28T14:50:57.291Z,99831.66
2022-07-28T14:53:27.668Z,99832.63
2022-07-28T14:55:57.243Z,99828.97
2022-07-28T14:58:25.898Z,99831.06
2022-07-28T15:00:56.121Z,99827.91
2022-07-28T15:03:27.018Z,99830.22
2022-07-28T15:05:55.484Z,99831.38
2022-07-28T15:08:29.117Z,99816.78
2022-07-28T15:10:58.981Z,99804.81
2022-07-28T15:13:27.681Z,99796.53
2022-07-28T15:16:00.170Z,99822.88
2022-07-28T15:18:29.043Z,99819.94
2022-07-28T15:20:57.490Z,99814.47
2022-07-28T15:23:26.011Z,99783.63
2022-07-28T15:25:56.223Z,99813.25
2022-07-28T15:28:25.163Z,99812.53
2022-07-28T15:30:54.623Z,99804.03
2022-07-28T15:33:25.600Z,99811.22
2022-07-28T15:35:58.549Z,99814.53
2022-07-28T15:38:29.604Z,99817.69
2022-07-28T15:41:01.095Z,99818.56
2022-07-28T15:43:30.429Z,99819.25
2022-07-28T15:45:59.202Z,99805.31
2022-07-28T15:48:29.451Z,99823.13
2022-07-28T15:50:57.931Z,99818.44
2022-07-28T15:53:26.393Z,99811.88
2022-07-28T15:55:55.111Z,99793.81
2022-07-28T15:58:27.459Z,99805.88
2022-07-28T16:00:56.147Z,99796.06
2022-07-28T16:03:29.528Z,99816.53
2022-07-28T16:05:59.145Z,99815.47
2022-07-28T16:08:28.024Z,99824.13
2022-07-28T16:10:56.518Z,99823.19
2022-07-28T16:13:35.623Z,99818.00
2022-07-28T16:16:10.528Z,99810.47
2022-07-28T16:18:43.395Z,99816.06
2022-07-28T16:21:12.319Z,99819.69
2022-07-28T16:23:40.778Z,99818.66
2022-07-28T16:26:09.572Z,99819.88
2022-07-28T16:28:38.137Z,99819.22
2022-07-28T16:31:07.103Z,99800.06
2022-07-28T16:33:35.916Z,99815.84
2022-07-28T16:36:06.574Z,99814.03
2022-07-28T16:38:35.283Z,99813.84
2022-07-28T16:41:03.777Z,99825.56
2022-07-28T16:43:33.167Z,99825.25
2022-07-28T16:46:02.799Z,99826.25
2022-07-28T16:48:31.347Z,99829.31
2022-07-28T16:50:59.998Z,99805.22
2022-07-28T16:53:30.570Z,99813.91
2022-07-28T16:55:59.172Z,99819.03
2022-07-28T16:58:27.703Z,99821.91
2022-07-28T17:00:56.370Z,99811.84
2022-07-28T17:03:27.554Z,99824.44
2022-07-28T17:05:56.136Z,99830.59
2022-07-28T17:08:24.809Z,99822.97
2022-07-28T17:10:54.779Z,99828.28
2022-07-28T17:13:25.787Z,99820.47
2022-07-28T17:15:54.613Z,99816.38
2022-07-28T17:18:23.419Z,99816.81
2022-07-28T17:20:51.944Z,99802.78
2022-07-28T17:23:20.464Z,99814.94
2022-07-28T17:28:38.852Z,99802.78
2022-07-28T17:31:07.407Z,99815.63
2022-07-28T17:33:36.191Z,99805.56
2022-07-28T17:36:05.202Z,99812.88
2022-07-28T17:38:33.692Z,99809.25
2022-07-28T17:41:04.318Z,99814.66
2022-07-28T17:43:33.080Z,99819.19
2022-07-28T17:46:08.453Z,99823.19
2022-07-28T17:48:39.185Z,99818.47
2022-07-28T17:51:07.719Z,99831.06
2022-07-28T17:53:39.233Z,99826.94
2022-07-28T17:56:09.177Z,99823.09
2022-07-28T17:58:38.787Z,99832.16
2022-07-28T18:01:12.583Z,99831.34
2022-07-28T18:03:58.660Z,99837.06
2022-07-28T18:06:34.220Z,99834.69
2022-07-28T18:09:05.562Z,99817.97
2022-07-28T18:11:37.426Z,99815.59
2022-07-28T18:14:23.853Z,99829.81
2022-07-28T18:16:53.780Z,99837.22
2022-07-28T18:19:22.387Z,99844.66
2022-07-28T18:21:50.967Z,99828.16
2022-07-28T18:24:22.200Z,99831.47
2022-07-28T18:26:51.560Z,99806.75
2022-07-28T18:29:21.045Z,99849.59
2022-07-28T18:31:50.732Z,99846.28
2022-07-28T18:34:23.629Z,99848.56
2022-07-28T18:36:53.993Z,99830.03
2022-07-28T18:39:22.888Z,99846.72
2022-07-28T18:41:51.427Z,99844.66
2022-07-28T18:44:20.755Z,99836.03
2022-07-28T18:46:50.194Z,99822.44
2022-07-28T18:49:21.728Z,99835.63
2022-07-28T18:51:50.605Z,99850.69
2022-07-28T18:54:27.037Z,99847.53
2022-07-28T18:56:56.897Z,99857.22
2022-07-28T18:59:26.321Z,99857.00
2022-07-28T19:01:54.881Z,99851.59
2022-07-28T19:04:24.850Z,99857.59
2022-07-28T19:06:53.301Z,99866.00
2022-07-28T19:09:21.950Z,99872.47
2022-07-28T19:11:50.434Z,99860.91
2022-07-28T19:14:19.362Z,99860.84
2022-07-28T19:16:48.242Z,99864.53
2022-07-28T19:19:16.772Z,99872.09
2022-07-28T19:21:46.786Z,99871.41
2022-07-28T19:24:15.934Z,99877.53
2022-07-28T19:26:46.991Z,99877.06
2022-07-28T19:29:15.457Z,99887.94
2022-07-28T19:31:44.148Z,99890.00
2022-07-28T19:34:13.119Z,99898.34
2022-07-28T19:36:41.974Z,99884.75
2022-07-28T19:39:12.404Z,99873.19
2022-07-28T19:41:41.399Z,99907.03
2022-07-28T19:44:10.783Z,99905.97
2022-07-28T19:46:39.654Z,99891.63
2022-07-28T19:49:09.100Z,99890.94
2022-07-28T19:51:37.702Z,99895.06
2022-07-28T19:54:06.565Z,99914.56
2022-07-28T19:56:37.453Z,99917.06
2022-07-28T19:59:05.950Z,99899.31
2022-07-28T20:01:34.819Z,99915.09
2022-07-28T20:04:05.442Z,99914.91
2022-07-28T20:06:34.560Z,99923.72
2022-07-28T20:09:03.777Z,99912.41
2022-07-28T20:11:33.973Z,99908.88
2022-07-28T20:14:04.126Z,99909.97
2022-07-28T20:16:32.622Z,99916.78
2022-07-28T20:19:01.558Z,99928.03
2022-07-28T20:21:30.023Z,99924.34
2022-07-28T20:24:08.616Z,99939.28
2022-07-28T20:26:37.133Z,99928.47
2022-07-28T20:29:06.985Z,99939.06
2022-07-28T20:31:36.966Z,99941.78
2022-07-28T20:34:07.010Z,99931.25
2022-07-28T20:36:36.039Z,99945.50
2022-07-28T20:39:21.104Z,99929.16
2022-07-28T20:41:53.028Z,99955.91
2022-07-28T20:44:30.570Z,99953.00
2022-07-28T20:47:00.793Z,99974.09
2022-07-28T20:49:30.015Z,99978.81
2022-07-28T20:51:58.738Z,99977.56
2022-07-28T20:54:27.758Z,99980.53
2022-07-28T20:56:56.475Z,99985.84
2022-07-28T20:59:27.912Z,99983.41
2022-07-28T21:01:57.023Z,99973.47
2022-07-28T21:04:26.549Z,99991.16
2022-07-28T21:07:01.800Z,99994.22
2022-07-28T21:09:31.064Z,99985.81
2022-07-28T21:12:00.070Z,99983.13
2022-07-28T21:14:32.388Z,99991.56
2022-07-28T21:17:01.020Z,99994.72
2022-07-28T21:19:29.601Z,99987.09
2022-07-28T21:21:58.171Z,99985.38
2022-07-28T21:24:26.764Z,99991.38
2022-07-28T21:26:55.267Z,99992.78
2022-07-28T21:32:04.930Z,99993.59
2022-07-28T21:34:36.094Z,99994.41
2022-07-28T21:37:05.890Z,99993.25
2022-07-28T21:39:35.980Z,100001.75
2022-07-28T21:42:07.760Z,99991.47
2022-07-28T21:44:36.878Z,100007.81
2022-07-28T21:47:07.177Z,100003.19
2022-07-28T21:49:36.043Z,100015.97
2022-07-28T21:52:04.714Z,100010.06
2022-07-28T21:54:33.174Z,100010.25
2022-07-28T21:57:01.701Z,100009.97
2022-07-28T21:59:30.177Z,100008.59
2022-07-28T22:01:58.662Z,100007.34
2022-07-28T22:04:28.856Z,99989.66
2022-07-28T22:06:57.382Z,100014.63
2022-07-28T22:09:26.048Z,100018.38
2022-07-28T22:11:54.594Z,100005.41
2022-07-28T22:14:25.614Z,100008.97
2022-07-28T22:16:54.442Z,100015.41
2022-07-28T22:19:23.092Z,100013.81
2022-07-28T22:21:54.147Z,99999.47
2022-07-28T22:24:22.840Z,99992.56
2022-07-28T22:26:51.587Z,100003.38
2022-07-28T22:29:20.044Z,99988.13
2022-07-28T22:31:48.623Z,99991.44
2022-07-28T22:34:17.535Z,99996.00
2022-07-28T22:36:46.301Z,99986.47
2022-07-28T22:39:16.255Z,99990.22
2022-07-28T22:41:46.918Z,99991.44
2022-07-28T22:44:15.991Z,99991.75
2022-07-28T22:46:44.937Z,99984.88
2022-07-28T22:49:13.821Z,99992.00
2022-07-28T22:51:46.443Z,99990.19
2022-07-28T22:54:21.593Z,99983.03
2022-07-28T22:57:13.348Z,100000.38
2022-07-28T22:59:42.530Z,99980.47
2022-07-28T23:02:16.045Z,99994.63
2022-07-28T23:04:49.612Z,100005.00
2022-07-28T23:07:20.248Z,99994.16
2022-07-28T23:10:14.266Z,99990.31
2022-07-28T23:12:42.810Z,100003.16
2022-07-28T23:15:11.270Z,100008.31
2022-07-28T23:17:39.715Z,99994.00
2022-07-28T23:20:08.854Z,100006.47
2022-07-28T23:22:38.088Z,100018.88
2022-07-28T23:25:07.326Z,100018.78
2022-07-28T23:27:37.443Z,100010.31
2022-07-28T23:30:07.118Z,100014.63
2022-07-28T23:32:35.639Z,100013.38
2022-07-28T23:35:05.909Z,100015.84
2022-07-28T23:37:35.190Z,100013.44
2022-07-28T23:40:05.278Z,100012.22
2022-07-28T23:42:33.769Z,100006.75
2022-07-28T23:45:05.934Z,100005.81
2022-07-28T23:47:34.590Z,99999.72
2022-07-28T23:50:03.527Z,100002.44
2022-07-28T23:52:32.349Z,99997.66
2022-07-28T23:55:00.895Z,99992.81
2022-07-28T23:57:30.833Z,100001.78
